Time;durP1;ratioP1;P1;durP2;ratioP2;P2;SDS_P1;SDS_P2;PMS_P1;PMS_P2;Temp;Humidity;BMP_temperature;BMP_pressure;BME280_temperature;BME280_humidity;BME280_pressure;Samples;Min_cycle;Max_cycle;Signal;HPM_P1;HPM_P2
2023/08/29 00:01:58;;;;;;;12.48;2.08;;;;;;;25.83;62.81;98534.75;4381456;32;33155;-90
2023/08/29 00:04:26;;;;;;;2.33;2.22;;;;;;;25.63;63.19;98527.25;4385584;32;32817;-90
2023/08/29 00:06:55;;;;;;;2.65;1.02;;;;;;;25.85;61.96;98519.16;4385024;32;32691;-90
2023/08/29 00:09:22;;;;;;;1.85;1.45;;;;;;;25.77;62.52;98523.69;4390446;32;32835;-91
2023/08/29 00:11:50;;;;;;;2.08;1.87;;;;;;;25.72;62.96;98512.59;4369099;32;33524;-90
2023/08/29 00:14:18;;;;;;;3.00;1.05;;;;;;;25.66;63.72;98521.47;4395920;32;32847;-90
2023/08/29 00:16:45;;;;;;;1.25;1.15;;;;;;;25.81;62.91;98526.84;4377292;32;32354;-91
2023/08/29 00:19:14;;;;;;;0.95;0.82;;;;;;;25.86;62.64;98534.34;4377175;32;33971;-90
2023/08/29 00:21:50;;;;;;;0.82;0.82;;;;;;;25.74;62.90;98524.06;4377253;32;33328;-90
2023/08/29 00:24:20;;;;;;;0.60;0.60;;;;;;;25.89;62.08;98520.47;4386761;32;32979;-90
2023/08/29 00:26:48;;;;;;;3.97;1.80;;;;;;;25.49;63.72;98533.56;4377187;32;32356;-91
2023/08/29 00:29:16;;;;;;;4.85;1.58;;;;;;;25.65;63.33;98551.41;4385112;32;32737;-91
2023/08/29 00:31:44;;;;;;;3.55;1.42;;;;;;;25.58;63.39;98555.91;4367436;32;32999;-91
2023/08/29 00:34:11;;;;;;;0.88;0.88;;;;;;;25.45;63.72;98557.47;4381092;32;34612;-91
2023/08/29 00:36:40;;;;;;;2.03;1.75;;;;;;;25.52;63.54;98568.34;4366889;32;33200;-91
2023/08/29 00:39:09;;;;;;;1.17;1.08;;;;;;;25.38;63.98;98578.16;4380028;32;32923;-93
2023/08/29 00:41:57;;;;;;;2.35;1.08;;;;;;;25.34;64.41;98592.25;4369639;32;33538;-92
2023/08/29 00:44:40;;;;;;;2.15;1.52;;;;;;;25.36;64.23;98595.62;4404267;32;32861;-92
2023/08/29 00:47:31;;;;;;;4.68;1.48;;;;;;;25.50;63.40;98600.97;4395942;32;33119;-91
2023/08/29 00:50:10;;;;;;;2.22;1.70;;;;;;;25.66;63.02;98580.94;4378509;32;32035;-92
2023/08/29 00:53:03;;;;;;;1.90;1.17;;;;;;;25.97;62.23;98574.38;4368132;32;33144;-93
2023/08/29 00:55:55;;;;;;;2.05;1.30;;;;;;;25.28;64.95;98616.31;4368525;32;33063;-94
2023/08/29 00:58:46;;;;;;;2.60;1.48;;;;;;;25.18;65.67;98626.56;4370994;32;32234;-94
2023/08/29 01:01:25;;;;;;;5.55;2.22;;;;;;;25.16;65.28;98642.16;4399108;32;32531;-94
2023/08/29 01:04:10;;;;;;;1.40;0.93;;;;;;;25.03;65.72;98650.03;4358940;32;32799;-94
2023/08/29 01:07:09;;;;;;;1.30;1.20;;;;;;;25.19;65.10;98649.03;4357026;32;33162;-93
2023/08/29 01:09:59;;;;;;;1.55;1.45;;;;;;;25.21;63.93;98658.63;4380199;32;32720;-91
2023/08/29 01:12:42;;;;;;;1.40;1.30;;;;;;;25.15;64.23;98664.75;4362730;32;32808;-91
2023/08/29 01:15:15;;;;;;;2.40;0.85;;;;;;;25.52;62.69;98638.59;4366186;32;33085;-91
2023/08/29 01:17:48;;;;;;;0.98;0.98;;;;;;;25.57;62.32;98633.47;4365363;32;33249;-89
2023/08/29 01:20:17;;;;;;;2.92;1.92;;;;;;;25.72;61.11;98628.00;4369703;32;34291;-90
2023/08/29 01:23:00;;;;;;;4.50;2.40;;;;;;;25.62;61.22;98614.81;4364895;32;32475;-91
2023/08/29 01:26:13;;;;;;;1.83;1.20;;;;;;;25.60;61.54;98597.13;4363409;32;34264;-90
2023/08/29 01:28:44;;;;;;;1.85;1.15;;;;;;;25.47;61.54;98582.44;4367009;32;34000;-91
2023/08/29 01:31:29;;;;;;;3.20;1.87;;;;;;;25.31;62.58;98581.84;4376998;32;33052;-96
2023/08/29 01:34:25;;;;;;;3.65;1.52;;;;;;;25.36;62.39;98584.81;4390297;32;33234;-94
2023/08/29 01:37:05;;;;;;;1.75;1.58;;;;;;;25.38;62.44;98574.63;4385800;32;33744;-94
2023/08/29 01:39:58;;;;;;;0.77;0.77;;;;;;;25.33;62.84;98559.00;4375074;32;33060;-96
2023/08/29 01:42:37;;;;;;;7.45;1.65;;;;;;;25.24;62.94;98566.38;4362050;32;33954;-94
2023/08/29 01:45:29;;;;;;;1.73;1.48;;;;;;;25.18;63.01;98553.63;4394178;32;32606;-94
2023/08/29 01:48:11;;;;;;;1.35;1.25;;;;;;;25.05;63.36;98542.66;4393320;32;32675;-94
2023/08/29 01:51:04;;;;;;;10.15;2.42;;;;;;;25.08;63.30;98536.91;4380845;32;32892;-94
2023/08/29 01:53:52;;;;;;;1.67;1.58;;;;;;;25.46;61.72;98515.06;4387563;32;32631;-92
2023/08/29 01:56:34;;;;;;;1.52;1.40;;;;;;;24.99;63.07;98535.31;4385948;32;32479;-91
2023/08/29 01:59:08;;;;;;;1.52;0.90;;;;;;;24.90;63.42;98547.25;4384920;32;33658;-92
2023/08/29 02:02:09;;;;;;;1.80;1.23;;;;;;;24.76;64.13;98547.06;4398912;32;33535;-92
2023/08/29 02:05:01;;;;;;;1.37;0.75;;;;;;;24.81;64.16;98549.22;4383491;32;33737;-92
2023/08/29 02:07:40;;;;;;;3.55;2.65;;;;;;;24.86;63.87;98556.75;4396663;32;32951;-91
2023/08/29 02:10:22;;;;;;;1.23;1.17;;;;;;;24.77;64.65;98585.72;4370866;32;32510;-94
2023/08/29 02:13:13;;;;;;;1.37;1.27;;;;;;;24.95;63.62;98590.72;4361897;32;32901;-90
2023/08/29 02:15:52;;;;;;;2.87;2.35;;;;;;;24.91;63.45;98598.34;4373951;32;32702;-93
2023/08/29 02:18:54;;;;;;;2.28;1.67;;;;;;;24.89;63.43;98588.78;4414522;32;31981;-89
2023/08/29 02:21:22;;;;;;;1.02;1.02;;;;;;;25.14;63.03;98581.22;4399844;32;33945;-89
2023/08/29 02:23:50;;;;;;;1.73;1.62;;;;;;;25.11;63.53;98565.38;4394972;32;32805;-89
2023/08/29 02:26:17;;;;;;;1.40;1.30;;;;;;;24.93;64.29;98569.31;4400059;32;32586;-89
2023/08/29 02:28:45;;;;;;;1.12;1.02;;;;;;;24.89;64.64;98561.78;4402073;32;31603;-89
2023/08/29 02:31:13;;;;;;;2.05;1.80;;;;;;;25.32;62.99;98532.19;4398733;32;33661;-89
2023/08/29 02:33:41;;;;;;;8.30;2.42;;;;;;;25.01;63.91;98527.84;4402489;32;32995;-89
2023/08/29 02:36:12;;;;;;;3.92;1.50;;;;;;;24.66;65.32;98526.81;4403589;32;33859;-90
2023/08/29 02:38:40;;;;;;;1.17;1.17;;;;;;;24.55;65.49;98520.03;4405754;32;33560;-90
2023/08/29 02:41:11;;;;;;;0.40;0.40;;;;;;;24.88;64.34;98506.13;4399584;32;33694;-89
2023/08/29 02:43:39;;;;;;;0.88;0.73;;;;;;;24.61;65.28;98489.59;4395416;32;33854;-90
2023/08/29 02:46:07;;;;;;;2.72;1.85;;;;;;;24.58;65.42;98505.31;4399125;32;32823;-90
2023/08/29 02:48:35;;;;;;;2.35;1.65;;;;;;;24.49;66.14;98507.28;4398034;32;31940;-90
2023/08/29 02:51:03;;;;;;;1.55;1.45;;;;;;;24.77;64.53;98505.56;4401047;32;32945;-90
2023/08/29 02:53:31;;;;;;;0.50;0.50;;;;;;;24.56;65.20;98518.16;4410399;32;33136;-89
2023/08/29 02:55:59;;;;;;;2.97;1.92;;;;;;;24.66;64.98;98514.16;4409252;32;33521;-90
2023/08/29 02:58:27;;;;;;;2.25;1.70;;;;;;;24.59;65.39;98506.97;4397873;32;32272;-91
2023/08/29 03:01:15;;;;;;;1.60;1.50;;;;;;;24.84;64.29;98505.66;4410037;32;32612;-92
2023/08/29 03:04:09;;;;;;;1.27;1.17;;;;;;;24.53;65.26;98506.72;4385181;32;32238;-90
2023/08/29 03:06:37;;;;;;;2.47;1.62;;;;;;;24.45;65.57;98514.94;4395281;32;34288;-91
2023/08/29 03:09:30;;;;;;;5.00;2.62;;;;;;;24.63;64.79;98517.22;4405776;32;31996;-90
2023/08/29 03:11:59;;;;;;;3.80;1.20;;;;;;;24.67;64.31;98515.81;4382475;32;32774;-90
2023/08/29 03:14:27;;;;;;;0.80;0.80;;;;;;;24.53;64.92;98519.38;4401829;32;33313;-91
2023/08/29 03:16:55;;;;;;;1.73;1.62;;;;;;;24.47;64.90;98525.53;4360136;32;33833;-91
2023/08/29 03:19:37;;;;;;;1.95;1.55;;;;;;;24.36;65.45;98512.47;4396634;32;32765;-91
2023/08/29 03:22:24;;;;;;;7.00;3.22;;;;;;;24.55;64.38;98511.94;4391549;32;33547;-91
2023/08/29 03:25:23;;;;;;;2.17;1.90;;;;;;;24.40;64.91;98509.25;4357901;32;32864;-91
2023/08/29 03:27:51;;;;;;;17.95;1.87;;;;;;;24.39;64.89;98512.13;4365453;32;32415;-91
2023/08/29 03:31:15;;;;;;;0.55;0.55;;;;;;;24.37;64.64;98519.56;4405487;32;32784;-90
2023/08/29 03:34:02;;;;;;;3.05;1.48;;;;;;;24.31;65.03;98526.53;4415289;32;33044;-91
2023/08/29 03:36:44;;;;;;;13.07;1.42;;;;;;;24.34;64.63;98511.81;4407310;32;33013;-91
2023/08/29 03:39:12;;;;;;;1.77;1.67;;;;;;;24.35;63.95;98510.78;4412803;32;33013;-91
2023/08/29 03:42:31;;;;;;;1.17;1.02;;;;;;;24.32;64.14;98511.16;4386434;32;33533;-90
2023/08/29 03:45:00;;;;;;;1.00;0.90;;;;;;;24.26;64.06;98500.09;4381940;32;32654;-91
2023/08/29 03:47:48;;;;;;;1.10;0.77;;;;;;;24.37;63.89;98498.00;4389371;32;34217;-92
2023/08/29 03:50:16;;;;;;;1.70;1.08;;;;;;;24.25;64.32;98506.50;4392078;32;32761;-91
2023/08/29 03:52:49;;;;;;;2.25;1.05;;;;;;;24.27;64.24;98507.16;4369798;32;32464;-90
2023/08/29 03:55:37;;;;;;;1.62;1.00;;;;;;;24.64;63.01;98499.16;4393442;32;32909;-90
2023/08/29 03:58:07;;;;;;;2.62;1.33;;;;;;;24.43;63.66;98497.22;4406826;32;33887;-91
2023/08/29 04:01:13;;;;;;;3.72;2.40;;;;;;;24.36;64.35;98499.84;4346192;32;32851;-92
2023/08/29 04:04:04;;;;;;;1.52;0.93;;;;;;;24.39;63.88;98507.56;4374191;32;32450;-93
2023/08/29 04:06:49;;;;;;;3.22;2.30;;;;;;;24.21;64.87;98504.34;4374564;32;33925;-92
2023/08/29 04:09:53;;;;;;;1.45;1.35;;;;;;;24.69;62.91;98502.97;4363603;32;33000;-91
2023/08/29 04:12:36;;;;;;;1.48;1.37;;;;;;;24.16;64.96;98513.00;4406038;32;33526;-94
2023/08/29 04:15:39;;;;;;;4.95;2.22;;;;;;;24.42;64.08;98500.97;4382775;32;32107;-94
2023/08/29 04:18:11;;;;;;;2.62;1.08;;;;;;;23.95;66.11;98527.22;4404755;32;33850;-87
2023/08/29 04:20:39;;;;;;;2.90;1.30;;;;;;;24.02;65.89;98524.63;4380908;32;33797;-85
2023/08/29 04:23:07;;;;;;;13.38;1.87;;;;;;;24.10;65.33;98529.09;4395624;32;34104;-85
2023/08/29 04:25:36;;;;;;;0.80;0.73;;;;;;;24.47;64.13;98530.91;4386130;32;32891;-85
2023/08/29 04:28:04;;;;;;;1.83;1.45;;;;;;;24.18;65.17;98537.94;4380166;32;31963;-85
2023/08/29 04:30:32;;;;;;;1.30;1.20;;;;;;;24.18;65.52;98542.50;4393846;32;33734;-85
2023/08/29 04:33:08;;;;;;;1.80;1.40;;;;;;;24.52;64.59;98540.13;4399993;32;33471;-85
2023/08/29 04:35:36;;;;;;;3.50;2.22;;;;;;;24.49;64.53;98537.78;4378268;32;32610;-85
2023/08/29 04:38:04;;;;;;;1.52;1.42;;;;;;;24.36;65.38;98552.94;4397400;32;33980;-85
2023/08/29 04:40:32;;;;;;;1.85;1.73;;;;;;;24.42;65.28;98549.53;4391909;32;33908;-86
2023/08/29 04:43:00;;;;;;;1.30;1.23;;;;;;;24.55;65.04;98541.62;4399189;32;33426;-86
2023/08/29 04:45:28;;;;;;;4.35;1.35;;;;;;;24.72;64.09;98534.16;4393566;32;34091;-86
2023/08/29 04:47:56;;;;;;;4.28;1.30;;;;;;;24.37;65.73;98552.78;4398106;32;33540;-86
2023/08/29 04:50:26;;;;;;;2.40;1.62;;;;;;;24.39;65.88;98566.91;4410746;32;33008;-85
2023/08/29 04:52:53;;;;;;;2.70;1.52;;;;;;;24.53;65.32;98557.16;4388220;32;32399;-86
2023/08/29 04:55:21;;;;;;;1.45;1.25;;;;;;;24.51;65.55;98560.03;4402205;32;33311;-85
2023/08/29 04:58:00;;;;;;;;;;;;;;;;;;;;;
2023/08/29 05:00:28;;;;;;;2.58;1.48;;;;;;;24.60;64.99;98563.50;4402399;32;34391;-85
2023/08/29 05:02:57;;;;;;;3.35;1.30;;;;;;;24.36;65.94;98574.53;4379248;32;33042;-85
2023/08/29 05:05:28;;;;;;;;;;;;;;;24.37;65.91;98579.75;4385774;32;33303;-85
2023/08/29 05:07:57;;;;;;;1.25;1.25;;;;;;;24.50;65.76;98584.53;4411494;32;33233;-85
2023/08/29 05:10:25;;;;;;;4.57;2.08;;;;;;;24.91;64.08;98575.91;4385604;32;34290;-85
2023/08/29 05:12:53;;;;;;;1.90;1.25;;;;;;;24.70;64.68;98574.84;4387980;32;32887;-85
2023/08/29 05:15:21;;;;;;;2.00;1.90;;;;;;;24.26;67.00;98589.13;4401559;32;32833;-86
2023/08/29 05:17:48;;;;;;;3.45;2.00;;;;;;;24.57;65.66;98580.03;4386143;32;34252;-87
2023/08/29 05:20:17;;;;;;;1.05;0.95;;;;;;;24.88;64.58;98592.50;4380891;32;32802;-87
2023/08/29 05:22:59;;;;;;;1.90;1.62;;;;;;;24.63;65.27;98590.09;4385795;32;33880;-88
2023/08/29 05:25:27;;;;;;;2.45;1.55;;;;;;;24.47;65.93;98607.31;4385078;32;33253;-88
2023/08/29 05:27:55;;;;;;;1.15;1.15;;;;;;;24.37;65.57;98612.13;4399739;32;34477;-87
2023/08/29 05:30:22;;;;;;;10.30;2.25;;;;;;;24.45;65.34;98608.50;4374841;32;33772;-87
2023/08/29 05:32:50;;;;;;;1.00;1.00;;;;;;;24.99;63.89;98608.22;4387954;32;33114;-87
2023/08/29 05:35:18;;;;;;;2.05;1.23;;;;;;;24.68;65.68;98611.13;4373486;32;33340;-88
2023/08/29 05:37:45;;;;;;;4.03;1.95;;;;;;;24.78;65.98;98609.84;4384374;32;31548;-87
2023/08/29 05:40:13;;;;;;;8.13;2.17;;;;;;;25.15;64.91;98582.87;4398765;32;34238;-87
2023/08/29 05:42:43;;;;;;;9.77;3.60;;;;;;;25.27;65.19;98578.69;4389922;32;32822;-87
2023/08/29 05:45:17;;;;;;;6.70;2.50;;;;;;;25.47;64.62;98577.03;4385791;32;34193;-86
2023/08/29 05:47:45;;;;;;;0.60;0.60;;;;;;;25.12;65.91;98581.41;4396083;32;33163;-85
2023/08/29 05:50:15;;;;;;;1.67;1.10;;;;;;;25.60;63.22;98551.16;4389055;32;32840;-85
2023/08/29 05:52:46;;;;;;;4.35;1.50;;;;;;;25.38;64.03;98544.91;4375698;32;33073;-87
2023/08/29 05:55:14;;;;;;;0.95;0.90;;;;;;;25.44;63.50;98560.34;4385854;32;32834;-87
2023/08/29 05:57:42;;;;;;;3.30;1.83;;;;;;;25.29;64.15;98553.13;4373687;32;32522;-86
2023/08/29 06:00:13;;;;;;;0.98;0.85;;;;;;;25.05;65.46;98569.66;4382816;32;32835;-87
2023/08/29 06:02:41;;;;;;;10.63;1.80;;;;;;;24.89;66.26;98569.88;4393101;32;32806;-87
2023/08/29 06:05:10;;;;;;;1.60;1.50;;;;;;;24.67;67.82;98601.34;4395300;32;34202;-87
2023/08/29 06:07:40;;;;;;;1.40;1.30;;;;;;;24.55;68.15;98614.47;4387743;32;33269;-87
2023/08/29 06:10:09;;;;;;;2.60;1.17;;;;;;;24.82;67.03;98629.19;4387343;32;32506;-87
2023/08/29 06:12:37;;;;;;;0.80;0.80;;;;;;;24.96;66.47;98595.91;4370928;32;32952;-86
2023/08/29 06:15:06;;;;;;;1.87;1.48;;;;;;;24.90;66.70;98564.28;4370077;32;33217;-86
2023/08/29 06:17:33;;;;;;;2.62;2.42;;;;;;;24.75;67.87;98561.59;4357421;32;33604;-87
2023/08/29 06:20:03;;;;;;;1.70;1.30;;;;;;;25.16;65.72;98547.59;4352261;32;34175;-87
2023/08/29 06:22:31;;;;;;;0.73;0.73;;;;;;;24.80;67.80;98581.81;4378966;32;32328;-87
2023/08/29 06:25:00;;;;;;;1.42;1.17;;;;;;;24.55;68.61;98594.75;4358947;32;33120;-87
2023/08/29 06:27:28;;;;;;;6.03;2.62;;;;;;;24.68;68.16;98611.94;4363850;32;33232;-87
2023/08/29 06:29:56;;;;;;;2.05;1.77;;;;;;;24.62;68.16;98610.00;4364864;32;33199;-88
2023/08/29 06:32:29;;;;;;;1.67;1.58;;;;;;;24.83;67.81;98594.91;4354307;32;32926;-88
2023/08/29 06:34:57;;;;;;;3.87;1.67;;;;;;;24.81;67.38;98597.81;4360323;32;32214;-91
2023/08/29 06:37:33;;;;;;;2.95;1.35;;;;;;;24.82;67.92;98598.66;4309400;32;34295;-87
2023/08/29 06:40:18;;;;;;;1.10;1.10;;;;;;;24.99;67.48;98583.94;4162908;33;33025;-86
2023/08/29 06:42:51;;;;;;;3.20;1.35;;;;;;;25.02;67.78;98597.06;4472875;31;176216;-85
2023/08/29 06:45:19;;;;;;;1.27;0.85;;;;;;;25.02;67.78;98597.06;4415907;32;31709;-83
2023/08/29 06:47:47;;;;;;;1.50;1.40;;;;;;;24.52;68.97;98614.84;4380963;32;32501;-84
2023/08/29 06:50:16;;;;;;;1.95;1.62;;;;;;;24.36;68.26;98609.59;4402256;32;34522;-84
2023/08/29 06:52:57;;;;;;;;;;;;;;;24.43;67.40;98611.38;4380418;32;34311;-84
2023/08/29 06:55:25;;;;;;;1.58;1.08;;;;;;;24.36;68.09;98639.28;4344426;32;33669;-84
2023/08/29 06:57:52;;;;;;;2.33;1.42;;;;;;;24.27;68.66;98690.59;4254748;33;36407;-84
2023/08/29 07:00:26;;;;;;;6.07;2.20;;;;;;;24.58;64.25;98711.25;4399203;31;106830;-83
2023/08/29 07:02:54;;;;;;;8.40;1.17;;;;;;;24.58;64.25;98711.25;4344221;32;32664;-83
2023/08/29 07:05:48;;;;;;;1.37;1.12;;;;;;;24.35;63.97;98705.84;4455112;31;137905;-83
2023/08/29 07:08:14;;;;;;;1.75;0.90;;;;;;;24.35;63.97;98705.84;4280312;33;34607;-82
2023/08/29 07:10:48;;;;;;;1.55;1.45;;;;;;;23.96;65.05;98719.47;4420213;31;108763;-83
2023/08/29 07:13:14;;;;;;;1.17;1.08;;;;;;;23.96;65.05;98719.47;4205789;33;32996;-83
2023/08/29 07:15:51;;;;;;;2.47;1.58;;;;;;;23.32;65.12;98713.41;4134294;33;32722;-82
2023/08/29 07:18:34;;;;;;;1.75;1.20;;;;;;;23.65;64.69;98720.34;4110612;33;34197;-83
2023/08/29 07:21:35;;;;;;;1.45;1.35;;;;;;;24.07;64.06;98700.19;4446529;31;118349;-84
2023/08/29 07:24:04;;;;;;;9.00;2.62;;;;;;;24.07;64.06;98700.19;4304184;32;32808;-83
2023/08/29 07:26:32;;;;;;;3.20;1.45;;;;;;;23.78;65.08;98692.78;4285782;32;33884;-82
2023/08/29 07:29:03;;;;;;;1.65;0.80;;;;;;;23.73;65.07;98698.72;4159719;33;34412;-83
2023/08/29 07:31:31;;;;;;;1.95;1.83;;;;;;;23.74;66.37;98711.19;4128597;33;33727;-83
2023/08/29 07:34:06;;;;;;;1.02;0.68;;;;;;;24.25;65.08;98695.31;4371882;31;109417;-82
2023/08/29 07:36:39;;;;;;;3.83;2.22;;;;;;;23.92;65.72;98699.28;4510426;31;119857;-86
2023/08/29 07:39:16;;;;;;;1.85;1.55;;;;;;;23.86;65.33;98695.44;4444779;32;34550;-85
2023/08/29 07:41:43;;;;;;;0.52;0.52;;;;;;;23.66;64.50;98684.28;4373506;32;34066;-84
2023/08/29 07:44:11;;;;;;;2.95;1.60;;;;;;;23.63;65.84;98681.91;4334978;32;32774;-83
2023/08/29 07:46:45;;;;;;;0.75;0.75;;;;;;;24.23;63.88;98654.22;4496690;31;257938;-84
2023/08/29 07:49:33;;;;;;;5.78;1.85;;;;;;;24.23;63.88;98654.22;4482406;31;33397;-84
2023/08/29 07:52:01;;;;;;;1.35;1.25;;;;;;;23.48;65.19;98654.06;4424411;32;32497;-85
2023/08/29 07:54:28;;;;;;;0.57;0.57;;;;;;;23.66;65.04;98651.94;4397999;32;33286;-84
2023/08/29 07:56:54;;;;;;;0.82;0.65;;;;;;;24.02;64.37;98648.66;4377763;32;34033;-84
2023/08/29 07:59:23;;;;;;;0.40;0.40;;;;;;;24.02;65.03;98641.41;4402378;32;32962;-84
2023/08/29 08:01:52;;;;;;;1.17;0.68;;;;;;;23.89;65.98;98646.56;4404892;32;33812;-84
2023/08/29 08:04:20;;;;;;;4.07;2.78;;;;;;;23.90;66.65;98666.28;4399455;32;34345;-84
2023/08/29 08:06:47;;;;;;;1.35;1.17;;;;;;;23.91;67.29;98703.00;4420654;32;32897;-84
2023/08/29 08:09:14;;;;;;;5.45;1.70;;;;;;;23.87;67.36;98707.91;4391674;32;30948;-84
2023/08/29 08:11:41;;;;;;;3.15;1.50;;;;;;;23.90;66.73;98691.38;4399611;32;32146;-84
2023/08/29 08:14:11;;;;;;;1.30;1.20;;;;;;;23.74;67.62;98703.13;4392959;32;33984;-83
2023/08/29 08:16:38;;;;;;;1.90;1.80;;;;;;;23.69;67.92;98704.63;4376351;32;33322;-84
2023/08/29 08:19:07;;;;;;;1.60;1.50;;;;;;;24.03;66.34;98698.88;4324540;32;33008;-83
2023/08/29 08:21:35;;;;;;;1.45;1.35;;;;;;;23.99;66.15;98711.03;4303423;32;33939;-84
2023/08/29 08:24:01;;;;;;;1.77;0.60;;;;;;;23.95;66.20;98707.00;4164279;33;33810;-83
2023/08/29 08:26:35;;;;;;;1.25;0.85;;;;;;;24.45;65.29;98708.31;4470556;31;89947;-83
2023/08/29 08:29:04;;;;;;;0.98;0.88;;;;;;;24.45;65.29;98708.31;4465221;31;34114;-83
2023/08/29 08:31:32;;;;;;;2.08;1.70;;;;;;;24.12;66.21;98721.22;4404035;32;30562;-83
2023/08/29 08:34:00;;;;;;;4.65;1.80;;;;;;;24.07;66.48;98723.59;4325747;32;34011;-83
2023/08/29 08:36:30;;;;;;;1.23;0.93;;;;;;;24.39;64.50;98736.03;4323145;32;33065;-84
2023/08/29 08:38:56;;;;;;;1.65;1.27;;;;;;;23.79;66.37;98752.97;4243174;33;32614;-82
2023/08/29 08:41:24;;;;;;;1.75;1.45;;;;;;;23.85;66.34;98757.63;4282196;32;34433;-83
2023/08/29 08:43:51;;;;;;;0.85;0.85;;;;;;;23.48;67.73;98762.66;4269394;32;33651;-83
2023/08/29 08:46:17;;;;;;;0.75;0.75;;;;;;;23.36;68.09;98765.87;4220679;33;33267;-81
2023/08/29 08:49:08;;;;;;;1.25;1.17;;;;;;;23.49;68.56;98806.59;4496071;31;233505;-81
2023/08/29 08:51:37;;;;;;;2.67;2.45;;;;;;;23.49;68.56;98806.59;4463717;31;32559;-81
2023/08/29 08:54:07;;;;;;;0.68;0.60;;;;;;;23.11;69.65;98814.44;4424018;32;32451;-81
2023/08/29 08:56:37;;;;;;;2.58;1.52;;;;;;;22.65;69.76;98827.56;4379968;32;33659;-80
2023/08/29 08:59:18;;;;;;;2.28;2.15;;;;;;;22.71;70.19;98829.59;4347428;32;32815;-81
2023/08/29 09:01:46;;;;;;;0.82;0.82;;;;;;;22.74;70.62;98807.72;4329219;32;32748;-80
2023/08/29 09:04:14;;;;;;;2.30;1.15;;;;;;;22.46;71.66;98801.00;4312541;32;33848;-81
2023/08/29 09:09:24;;;;;;;1.10;0.73;;;;;;;23.39;68.84;98752.91;4488812;31;100905;-81
2023/08/29 09:11:54;;;;;;;1.45;1.08;;;;;;;23.39;68.84;98752.91;4389186;32;32805;-81
2023/08/29 09:14:26;;;;;;;3.80;1.58;;;;;;;22.62;71.26;98757.94;4398593;32;33256;-81
2023/08/29 09:17:21;;;;;;;13.20;1.77;;;;;;;22.50;71.96;98756.59;4344584;32;33800;-82
2023/08/29 09:21:23;;;;;;;1.90;1.33;;;;;;;23.37;68.52;98711.03;4480595;31;96175;-81
2023/08/29 09:23:54;;;;;;;1.60;1.50;;;;;;;23.37;68.52;98711.03;4387461;32;32299;-81
2023/08/29 09:27:15;;;;;;;1.00;1.00;;;;;;;23.00;69.29;98709.81;4492598;31;148723;-81
2023/08/29 09:29:43;;;;;;;0.57;0.57;;;;;;;23.00;69.29;98709.81;4441033;31;33077;-90
2023/08/29 09:32:14;;;;;;;2.62;1.45;;;;;;;22.45;70.97;98722.13;4423379;32;33044;-89
2023/08/29 09:34:43;;;;;;;1.98;0.77;;;;;;;22.66;70.35;98713.56;4432471;32;32668;-89
2023/08/29 09:37:12;;;;;;;0.90;0.90;;;;;;;22.84;69.73;98705.28;4403529;32;32723;-89
2023/08/29 09:39:41;;;;;;;1.55;1.45;;;;;;;23.34;67.99;98673.66;4399617;32;34778;-89
2023/08/29 09:42:10;;;;;;;0.82;0.82;;;;;;;23.17;68.75;98662.97;4420105;32;33143;-89
2023/08/29 09:44:40;;;;;;;0.55;0.55;;;;;;;23.14;68.66;98647.16;4429606;32;34694;-89
2023/08/29 09:47:12;;;;;;;2.45;1.27;;;;;;;22.70;70.42;98650.31;4412042;32;33868;-89
2023/08/29 09:49:41;;;;;;;0.85;0.85;;;;;;;22.82;70.27;98637.31;4429549;32;30706;-89
2023/08/29 09:52:10;;;;;;;1.30;1.08;;;;;;;22.71;72.18;98645.78;4428203;32;32676;-90
2023/08/29 09:54:49;;;;;;;2.72;1.05;;;;;;;22.97;70.95;98640.16;4420387;32;33681;-90
2023/08/29 09:57:24;;;;;;;0.73;0.73;;;;;;;23.25;68.70;98622.50;4424296;32;33622;-90
2023/08/29 10:00:09;;;;;;;0.98;0.85;;;;;;;23.11;69.04;98630.50;4410066;32;32891;-90
2023/08/29 10:02:40;;;;;;;8.73;1.13;;;;;;;23.24;69.22;98628.09;4399995;32;34492;-90
2023/08/29 10:05:33;;;;;;;1.42;1.33;;;;;;;23.37;68.13;98622.97;4415536;32;32836;-89
2023/08/29 10:08:16;;;;;;;2.35;1.10;;;;;;;23.04;70.17;98630.38;4392809;32;32693;-90
2023/08/29 10:10:44;;;;;;;1.33;1.05;;;;;;;23.24;69.06;98615.47;4411830;32;34879;-90
2023/08/29 10:13:14;;;;;;;1.37;1.27;;;;;;;23.20;69.38;98627.59;4432364;32;33745;-90
2023/08/29 10:15:46;;;;;;;1.62;1.52;;;;;;;23.16;70.20;98626.25;4394653;32;33870;-90
2023/08/29 10:18:18;;;;;;;1.30;1.20;;;;;;;23.34;69.42;98630.56;4418314;32;33616;-90
2023/08/29 10:20:47;;;;;;;5.87;1.92;;;;;;;23.29;69.57;98638.34;4404241;32;32235;-90
2023/08/29 10:23:17;;;;;;;2.12;1.12;;;;;;;23.03;69.79;98644.84;4405839;32;33150;-90
2023/08/29 10:25:46;;;;;;;0.82;0.82;;;;;;;23.50;68.67;98647.47;4408077;32;33818;-90
2023/08/29 10:28:14;;;;;;;0.98;0.95;;;;;;;23.30;69.52;98666.94;4421796;32;32742;-90
2023/08/29 10:30:46;;;;;;;2.50;1.55;;;;;;;23.18;69.69;98679.97;4417111;32;32604;-90
2023/08/29 10:33:15;;;;;;;1.73;0.88;;;;;;;23.12;69.37;98681.50;4420125;32;32989;-90
2023/08/29 10:35:47;;;;;;;0.77;0.77;;;;;;;22.88;70.25;98692.28;4442551;32;33032;-90
2023/08/29 10:38:16;;;;;;;7.12;1.30;;;;;;;22.63;71.66;98678.06;4414467;32;33517;-91
2023/08/29 10:40:48;;;;;;;1.08;1.08;;;;;;;22.74;70.32;98673.19;4401953;32;33088;-90
2023/08/29 10:43:21;;;;;;;3.90;1.30;;;;;;;22.45;71.01;98662.13;4427443;32;33752;-90
2023/08/29 10:46:15;;;;;;;4.62;2.10;;;;;;;22.75;71.10;98653.31;4403994;32;32969;-89
2023/08/29 10:48:51;;;;;;;4.65;0.90;;;;;;;22.62;70.76;98657.56;4409223;32;33823;-90
2023/08/29 10:51:22;;;;;;;1.25;1.05;;;;;;;23.01;69.47;98652.25;4397633;32;33035;-89
2023/08/29 10:54:05;;;;;;;2.05;1.45;;;;;;;22.90;71.05;98641.88;4371664;32;32725;-91
2023/08/29 10:56:45;;;;;;;2.37;1.35;;;;;;;23.21;69.78;98640.03;4424314;32;34955;-91
2023/08/29 10:59:32;;;;;;;1.50;0.82;;;;;;;23.65;68.41;98631.41;4412893;32;32216;-90
2023/08/29 11:02:21;;;;;;;1.48;1.37;;;;;;;23.98;66.82;98615.00;4401749;32;32459;-91
2023/08/29 11:05:10;;;;;;;1.27;1.10;;;;;;;24.12;65.85;98608.81;4419264;32;32571;-92
2023/08/29 11:08:21;;;;;;;1.00;1.00;;;;;;;23.94;68.10;98603.72;4378070;32;33734;-91
2023/08/29 11:11:21;;;;;;;1.50;1.40;;;;;;;24.30;65.82;98584.16;4417903;32;34687;-91
2023/08/29 11:14:55;;;;;;;2.65;2.30;;;;;;;24.60;66.05;98582.38;4411905;32;33379;-91
2023/08/29 11:17:39;;;;;;;0.75;0.75;;;;;;;24.69;64.39;98578.56;4383978;32;33833;-91
2023/08/29 11:20:46;;;;;;;1.20;0.52;;;;;;;25.10;64.75;98588.84;4419393;32;32905;-91
2023/08/29 11:23:33;;;;;;;3.92;1.60;;;;;;;24.90;61.80;98582.34;4411424;32;34031;-92
2023/08/29 11:26:22;;;;;;;2.40;1.42;;;;;;;25.09;60.59;98587.19;4395297;32;32020;-91
2023/08/29 11:29:12;;;;;;;1.02;1.02;;;;;;;25.02;61.52;98586.25;4405682;32;32695;-91
2023/08/29 11:32:20;;;;;;;6.82;2.20;;;;;;;25.31;61.12;98587.25;4417598;32;33075;-91
2023/08/29 11:34:52;;;;;;;1.98;1.87;;;;;;;25.68;60.15;98588.84;4390943;32;33068;-91
2023/08/29 11:37:23;;;;;;;;;;;;;;;25.40;60.17;98586.94;4392020;32;32920;-90
2023/08/29 11:39:52;;;;;;;1.58;1.48;;;;;;;25.48;60.38;98580.56;4404484;32;34074;-91
2023/08/29 11:42:43;;;;;;;2.65;1.58;;;;;;;25.89;58.96;98588.06;4404178;32;33320;-91
2023/08/29 11:45:39;;;;;;;1.17;0.95;;;;;;;26.30;59.94;98583.63;4415732;32;33089;-91
2023/08/29 11:48:25;;;;;;;10.70;1.45;;;;;;;26.42;58.07;98583.06;4404971;32;32973;-91
2023/08/29 11:50:58;;;;;;;0.62;0.55;;;;;;;26.39;61.23;98588.84;4405019;32;33265;-91
2023/08/29 11:53:30;;;;;;;1.37;1.27;;;;;;;26.70;58.79;98600.13;4414940;32;34200;-91
2023/08/29 11:55:59;;;;;;;2.05;1.48;;;;;;;26.76;57.60;98604.75;4378698;32;33461;-92
2023/08/29 11:58:49;;;;;;;21.02;1.67;;;;;;;26.99;56.89;98600.91;4398849;32;33199;-91
2023/08/29 12:01:37;;;;;;;3.05;1.95;;;;;;;27.31;55.30;98602.94;4405674;32;33980;-92
2023/08/29 12:04:27;;;;;;;1.87;1.60;;;;;;;27.37;53.85;98603.16;4395312;32;32846;-91
2023/08/29 12:07:16;;;;;;;1.00;1.00;;;;;;;27.47;52.79;98611.75;4406537;32;33694;-93
2023/08/29 12:10:31;;;;;;;0.52;0.52;;;;;;;27.81;53.04;98619.75;4371724;32;32146;-92
2023/08/29 12:13:14;;;;;;;27.15;1.35;;;;;;;28.09;51.49;98618.75;4374762;32;33010;-91
2023/08/29 12:15:56;;;;;;;1.08;0.82;;;;;;;28.08;53.97;98619.81;4363666;32;32720;-92
2023/08/29 12:18:26;;;;;;;0.90;0.88;;;;;;;28.13;52.43;98611.03;4374631;32;32293;-92
2023/08/29 12:21:18;;;;;;;1.62;1.40;;;;;;;28.51;50.62;98612.06;4375484;32;32430;-92